Terminal Aerodrome Forecast
Issued by NWS

Home | Current Version | Previous Version | Graphics & Text | Print | Product List | Glossary Off
Versions: 1 2 3 4 5 6 7 8 9 10 11 12 13 14 15 16

000
FTUS43 KDDC 201720
TAFGCK
TAF
KGCK 201720Z 2018/2118 19025G33KT P6SM SCT250
     FM210200 17022G30KT P6SM FEW200 WS020/19050KT
     FM210900 19017KT P6SM SCT130
     FM211300 23014KT P6SM SCT110
     FM211500 34022G32KT P6SM SCT100=

USA.gov is the U.S. government's official web portal to all federal, state and local government web resources and services.